Time;durP1;ratioP1;P1;durP2;ratioP2;P2;SDS_P1;SDS_P2;PMS_P1;PMS_P2;Temp;Humidity;BMP_temperature;BMP_pressure;BME280_temperature;BME280_humidity;BME280_pressure;Samples;Min_cycle;Max_cycle;Signal;HPM_P1;HPM_P2
2022/04/09 00:02:13;;;;;;;15.40;3.85;;;7.00;99.90;;;;;;5024581;28;20046;-67
2022/04/09 00:04:38;;;;;;;15.32;2.55;;;6.90;99.90;;;;;;5030205;28;20049;-67
2022/04/09 00:07:04;;;;;;;11.07;2.45;;;6.80;99.90;;;;;;5020928;28;20050;-67
2022/04/09 00:09:30;;;;;;;13.80;2.78;;;6.80;99.90;;;;;;5023912;28;20049;-67
2022/04/09 00:11:55;;;;;;;9.27;1.77;;;6.80;99.90;;;;;;5030228;28;20056;-67
2022/04/09 00:14:21;;;;;;;9.63;1.90;;;6.80;99.90;;;;;;5024383;28;20045;-67
2022/04/09 00:16:47;;;;;;;10.82;2.58;;;6.70;99.90;;;;;;5015112;28;20077;-67
2022/04/09 00:19:12;;;;;;;14.80;3.22;;;6.70;99.90;;;;;;5030295;28;20056;-67
2022/04/09 00:21:39;;;;;;;8.63;2.17;;;6.70;99.90;;;;;;5019165;28;20472;-67
2022/04/09 00:24:05;;;;;;;9.10;1.98;;;6.70;99.90;;;;;;5020648;28;20056;-66
2022/04/09 00:26:31;;;;;;;8.98;1.58;;;6.70;99.90;;;;;;5021908;28;20041;-67
2022/04/09 00:28:56;;;;;;;10.60;2.22;;;6.60;99.90;;;;;;5022185;28;20770;-67
2022/04/09 00:31:22;;;;;;;15.13;2.28;;;6.60;99.90;;;;;;5025293;28;20152;-67
2022/04/09 00:33:47;;;;;;;13.40;1.85;;;6.70;99.90;;;;;;5016312;28;20484;-67
2022/04/09 00:36:13;;;;;;;11.18;2.03;;;6.70;99.90;;;;;;5021559;28;20053;-67
2022/04/09 00:38:38;;;;;;;3.85;1.25;;;6.70;99.90;;;;;;5029046;28;20045;-67
2022/04/09 00:41:04;;;;;;;6.00;1.13;;;6.70;99.90;;;;;;5028834;28;20057;-67
2022/04/09 00:43:29;;;;;;;8.10;1.08;;;6.50;99.90;;;;;;5016220;28;20060;-67
2022/04/09 00:45:55;;;;;;;6.32;1.13;;;6.50;99.90;;;;;;5025091;28;20104;-66
2022/04/09 00:48:22;;;;;;;4.18;1.10;;;6.30;99.90;;;;;;5029512;28;20046;-67
2022/04/09 00:50:48;;;;;;;6.25;0.90;;;6.30;99.90;;;;;;5018895;28;20497;-67
2022/04/09 00:53:18;;;;;;;1.75;0.80;;;6.20;99.90;;;;;;5026880;28;20057;-67
2022/04/09 00:58:30;;;;;;;5.63;0.93;;;6.30;99.90;;;;;;5010789;28;20520;-67
2022/04/09 01:00:56;;;;;;;8.02;1.45;;;6.20;99.90;;;;;;5014784;28;20053;-67
2022/04/09 01:03:21;;;;;;;5.50;1.42;;;6.10;99.90;;;;;;5014503;28;20527;-67
2022/04/09 01:05:48;;;;;;;6.68;1.27;;;6.10;99.90;;;;;;5027920;28;20045;-67
2022/04/09 01:08:14;;;;;;;8.23;1.33;;;6.10;99.90;;;;;;5026936;28;20266;-67
2022/04/09 01:10:40;;;;;;;5.22;1.50;;;6.00;99.90;;;;;;5029781;28;20525;-67
2022/04/09 01:13:06;;;;;;;13.18;1.92;;;6.10;99.90;;;;;;5029692;28;20041;-67
2022/04/09 01:15:32;;;;;;;7.25;1.30;;;6.10;99.90;;;;;;5019955;28;20034;-67
2022/04/09 01:17:59;;;;;;;8.30;1.85;;;6.10;99.90;;;;;;5018757;28;20455;-67
2022/04/09 01:20:29;;;;;;;9.45;2.42;;;6.20;99.90;;;;;;5028678;28;20049;-67
2022/04/09 01:22:55;;;;;;;9.05;1.55;;;6.30;99.90;;;;;;5027051;28;20052;-67
2022/04/09 01:25:21;;;;;;;8.77;1.55;;;6.30;99.90;;;;;;5013007;28;20050;-67
2022/04/09 01:27:48;;;;;;;10.00;2.30;;;6.30;99.90;;;;;;5027914;28;20076;-67
2022/04/09 01:30:16;;;;;;;13.80;1.73;;;6.30;99.90;;;;;;5028771;28;20046;-67
2022/04/09 01:32:41;;;;;;;9.27;1.40;;;6.30;99.90;;;;;;5028271;28;20076;-67
2022/04/09 01:35:07;;;;;;;9.50;1.60;;;6.30;99.90;;;;;;5026223;28;20043;-67
2022/04/09 01:37:33;;;;;;;7.82;1.95;;;6.30;99.90;;;;;;5023033;28;20098;-67
2022/04/09 01:39:59;;;;;;;6.57;1.55;;;6.30;99.90;;;;;;5031874;28;20053;-67
2022/04/09 01:42:26;;;;;;;7.53;1.58;;;6.20;99.90;;;;;;5024380;28;20054;-67
2022/04/09 01:44:52;;;;;;;14.77;2.50;;;6.30;99.90;;;;;;5021898;28;20056;-67
2022/04/09 01:47:18;;;;;;;8.43;1.95;;;6.30;99.90;;;;;;5019467;28;20425;-67
2022/04/09 01:49:44;;;;;;;8.48;2.63;;;6.20;99.90;;;;;;5032803;28;20438;-66
2022/04/09 01:52:09;;;;;;;10.65;2.13;;;6.30;99.90;;;;;;5033618;28;20056;-66
2022/04/09 01:54:35;;;;;;;7.05;1.75;;;6.30;99.90;;;;;;5017327;28;20049;-66
2022/04/09 01:57:00;;;;;;;12.45;1.83;;;6.20;99.90;;;;;;5032388;28;20384;-67
2022/04/09 01:59:26;;;;;;;8.30;1.40;;;6.20;99.90;;;;;;5033369;28;20056;-67
2022/04/09 02:01:52;;;;;;;7.45;1.33;;;6.20;99.90;;;;;;5033627;28;20049;-67
2022/04/09 02:04:17;;;;;;;9.73;1.92;;;6.30;99.90;;;;;;5012517;28;20045;-67
2022/04/09 02:06:44;;;;;;;10.05;1.35;;;6.20;99.90;;;;;;5030608;28;20056;-67
2022/04/09 02:09:13;;;;;;;6.68;0.80;;;6.20;99.90;;;;;;5023946;28;20504;-66
2022/04/09 02:11:39;;;;;;;9.27;1.13;;;6.10;99.90;;;;;;5032398;28;20057;-66
2022/04/09 02:14:07;;;;;;;6.72;1.30;;;6.10;99.90;;;;;;5033556;28;20481;-67
2022/04/09 02:16:33;;;;;;;5.22;1.30;;;6.00;99.90;;;;;;5028049;28;20564;-67
2022/04/09 02:18:59;;;;;;;7.70;1.70;;;6.00;99.90;;;;;;5021120;28;20813;-67
2022/04/09 02:21:25;;;;;;;6.13;1.08;;;5.90;99.90;;;;;;5032782;28;20037;-67
2022/04/09 02:23:50;;;;;;;13.73;2.60;;;5.90;99.90;;;;;;5031754;28;20493;-66
2022/04/09 02:26:16;;;;;;;10.10;2.30;;;6.00;99.90;;;;;;5025228;28;20055;-66
2022/04/09 02:28:42;;;;;;;9.43;1.42;;;5.90;99.90;;;;;;5017132;28;20049;-67
2022/04/09 02:31:07;;;;;;;8.25;1.70;;;5.80;99.90;;;;;;5025686;28;20077;-66
2022/04/09 02:33:33;;;;;;;9.95;1.67;;;5.80;99.90;;;;;;5019398;28;20058;-66
2022/04/09 02:35:59;;;;;;;18.27;3.33;;;5.90;99.90;;;;;;5032186;28;20441;-66
2022/04/09 02:38:25;;;;;;;11.45;2.38;;;5.80;99.90;;;;;;5018298;28;20065;-67
2022/04/09 02:40:51;;;;;;;16.17;2.28;;;5.80;99.90;;;;;;5022704;28;20637;-67
2022/04/09 02:43:16;;;;;;;8.25;1.58;;;5.80;99.90;;;;;;5030720;28;20065;-67
2022/04/09 02:45:42;;;;;;;14.30;2.40;;;5.90;99.90;;;;;;5019771;28;20054;-66
2022/04/09 02:48:08;;;;;;;11.80;2.30;;;6.00;99.90;;;;;;5027673;28;20065;-66
2022/04/09 02:50:33;;;;;;;13.93;3.35;;;5.90;99.90;;;;;;5031513;28;20115;-67
2022/04/09 02:52:59;;;;;;;12.95;2.50;;;6.00;99.90;;;;;;5020729;28;20046;-67
2022/04/09 02:55:24;;;;;;;15.23;3.08;;;5.90;99.90;;;;;;5029249;28;20053;-67
2022/04/09 02:57:50;;;;;;;15.80;2.78;;;6.00;99.90;;;;;;5032439;28;20037;-66
2022/04/09 03:00:16;;;;;;;11.55;2.25;;;5.90;99.90;;;;;;5026997;28;20041;-67
2022/04/09 03:02:42;;;;;;;8.10;1.67;;;5.90;99.90;;;;;;5032338;28;20048;-67
2022/04/09 03:05:09;;;;;;;11.27;1.75;;;5.90;99.90;;;;;;5029965;28;20044;-66
2022/04/09 03:07:35;;;;;;;7.70;1.23;;;5.90;99.90;;;;;;5012109;28;20795;-66
2022/04/09 03:10:02;;;;;;;5.63;1.38;;;6.00;99.90;;;;;;5027378;28;20037;-66
2022/04/09 03:12:28;;;;;;;8.20;1.35;;;5.90;99.90;;;;;;5029590;28;20076;-66
2022/04/09 03:14:54;;;;;;;9.32;1.85;;;6.00;99.90;;;;;;5031046;28;20077;-66
2022/04/09 03:17:19;;;;;;;7.07;1.40;;;6.00;99.90;;;;;;5029740;28;20057;-67
2022/04/09 03:19:45;;;;;;;12.45;1.88;;;5.90;99.90;;;;;;5020272;28;20053;-66
2022/04/09 03:22:11;;;;;;;11.43;2.10;;;5.90;99.90;;;;;;5030670;28;20042;-67
2022/04/09 03:24:37;;;;;;;9.93;1.83;;;6.00;99.90;;;;;;5031040;28;20099;-66
2022/04/09 03:27:02;;;;;;;10.60;1.65;;;5.90;99.90;;;;;;5031597;28;20076;-66
2022/04/09 03:29:28;;;;;;;6.15;1.13;;;5.90;99.90;;;;;;5031172;28;20456;-66
2022/04/09 03:31:54;;;;;;;10.82;1.95;;;5.90;99.90;;;;;;5017512;28;20041;-66
2022/04/09 03:34:20;;;;;;;12.73;2.80;;;5.90;99.90;;;;;;5022990;28;20050;-66
2022/04/09 03:36:46;;;;;;;13.50;1.83;;;5.90;99.90;;;;;;5022369;28;20037;-66
2022/04/09 03:39:11;;;;;;;8.77;1.75;;;5.90;99.90;;;;;;5031648;28;20042;-66
2022/04/09 03:41:37;;;;;;;15.23;3.72;;;6.00;99.90;;;;;;5023698;28;20077;-66
2022/04/09 03:44:03;;;;;;;9.15;1.48;;;5.90;99.90;;;;;;5020066;28;20056;-66
2022/04/09 03:46:28;;;;;;;9.13;1.90;;;6.00;99.90;;;;;;5025751;28;20045;-66
2022/04/09 03:48:54;;;;;;;7.68;1.70;;;6.00;99.90;;;;;;5027502;28;20608;-66
2022/04/09 03:51:19;;;;;;;14.25;3.08;;;6.00;99.90;;;;;;5024522;28;20125;-66
2022/04/09 03:53:45;;;;;;;13.57;2.40;;;6.00;99.90;;;;;;5011618;28;20420;-67
2022/04/09 03:56:11;;;;;;;15.27;2.75;;;6.10;99.90;;;;;;5011358;28;20042;-66
2022/04/09 03:58:37;;;;;;;18.50;2.20;;;6.20;99.90;;;;;;5013266;28;20038;-66
2022/04/09 04:01:03;;;;;;;12.30;2.55;;;6.30;99.90;;;;;;5015531;28;20045;-66
2022/04/09 04:03:28;;;;;;;12.57;1.75;;;6.30;99.90;;;;;;5009500;28;20045;-66
2022/04/09 04:05:54;;;;;;;11.35;2.08;;;6.30;99.90;;;;;;5016140;28;20539;-66
2022/04/09 04:08:20;;;;;;;11.95;3.03;;;6.30;99.90;;;;;;5017938;28;20044;-67
2022/04/09 04:10:45;;;;;;;13.55;2.15;;;6.30;99.90;;;;;;5018991;28;20053;-66
2022/04/09 04:13:11;;;;;;;16.80;2.38;;;6.20;99.90;;;;;;5029612;28;20045;-66
2022/04/09 04:15:37;;;;;;;11.35;2.35;;;6.10;99.90;;;;;;5023059;28;20117;-66
2022/04/09 04:18:03;;;;;;;8.85;2.70;;;6.10;99.90;;;;;;5020569;28;20404;-66
2022/04/09 04:20:29;;;;;;;19.55;1.98;;;6.10;99.90;;;;;;5030192;28;20096;-66
2022/04/09 04:22:54;;;;;;;11.60;2.38;;;6.10;99.90;;;;;;5019526;28;20046;-66
2022/04/09 04:25:20;;;;;;;17.13;3.08;;;6.10;99.90;;;;;;5018773;28;20477;-66
2022/04/09 04:27:51;;;;;;;16.48;2.55;;;6.10;99.90;;;;;;5013985;28;20045;-66
2022/04/09 04:30:18;;;;;;;13.57;2.78;;;6.10;99.90;;;;;;5023814;28;20091;-67
2022/04/09 04:32:44;;;;;;;14.05;2.85;;;6.10;99.90;;;;;;5027449;28;20037;-66
2022/04/09 04:35:11;;;;;;;11.50;1.90;;;6.10;99.90;;;;;;5016465;28;20473;-66
2022/04/09 04:37:44;;;;;;;9.98;1.75;;;6.10;99.90;;;;;;5029066;28;20076;-66
2022/04/09 04:40:11;;;;;;;13.45;1.50;;;6.10;99.90;;;;;;5021458;28;20049;-66
2022/04/09 04:42:37;;;;;;;3.42;1.30;;;6.00;99.90;;;;;;5023605;28;20117;-66
2022/04/09 04:45:03;;;;;;;8.07;1.23;;;5.90;99.90;;;;;;5015285;28;20120;-66
2022/04/09 04:47:29;;;;;;;7.55;1.15;;;5.90;99.90;;;;;;5023438;28;20507;-66
2022/04/09 04:49:54;;;;;;;16.83;2.38;;;5.90;99.90;;;;;;5019581;28;20042;-66
2022/04/09 04:52:20;;;;;;;13.07;3.17;;;5.90;99.90;;;;;;5026241;28;20076;-67
2022/04/09 04:54:45;;;;;;;7.50;1.90;;;5.80;99.90;;;;;;5030003;28;20490;-69
2022/04/09 04:57:11;;;;;;;9.68;2.03;;;5.60;99.90;;;;;;5015388;28;20044;-69
2022/04/09 04:59:38;;;;;;;8.52;1.95;;;5.50;99.90;;;;;;5022426;28;20045;-68
2022/04/09 05:02:03;;;;;;;11.65;2.30;;;5.50;99.90;;;;;;5028471;28;20063;-67
2022/04/09 05:04:29;;;;;;;27.30;2.97;;;5.40;99.90;;;;;;5017872;28;20466;-67
2022/04/09 05:06:55;;;;;;;15.70;1.90;;;5.50;99.90;;;;;;5019658;28;20389;-68
2022/04/09 05:09:21;;;;;;;11.52;2.08;;;5.50;99.90;;;;;;5015088;28;20041;-67
2022/04/09 05:11:47;;;;;;;10.52;2.65;;;5.50;99.90;;;;;;5029459;28;20049;-67
2022/04/09 05:14:12;;;;;;;15.55;2.70;;;5.40;99.90;;;;;;5020450;28;20398;-67
2022/04/09 05:16:38;;;;;;;21.27;2.78;;;5.50;99.90;;;;;;5016061;28;20140;-68
2022/04/09 05:19:04;;;;;;;15.27;3.38;;;5.50;99.90;;;;;;5017550;28;20057;-68
2022/04/09 05:21:30;;;;;;;16.67;3.53;;;5.50;99.90;;;;;;5021491;28;20034;-68
2022/04/09 05:23:55;;;;;;;12.23;3.25;;;5.50;99.90;;;;;;5030077;28;20044;-68
2022/04/09 05:26:21;;;;;;;11.65;2.47;;;5.60;99.90;;;;;;5013355;28;20037;-67
2022/04/09 05:28:53;;;;;;;8.07;2.25;;;5.60;99.90;;;;;;5021849;28;20065;-67
2022/04/09 05:31:27;;;;;;;12.35;2.53;;;5.60;99.90;;;;;;5022000;28;20065;-67
2022/04/09 05:33:53;;;;;;;11.82;2.65;;;5.60;99.90;;;;;;5019359;28;20052;-67
2022/04/09 05:36:19;;;;;;;10.48;2.67;;;5.60;99.90;;;;;;5017792;28;20044;-67
2022/04/09 05:38:44;;;;;;;10.02;2.28;;;5.60;99.90;;;;;;5012785;28;20493;-67
2022/04/09 05:41:10;;;;;;;10.48;2.38;;;5.70;99.90;;;;;;5022692;28;20403;-67
2022/04/09 05:43:35;;;;;;;15.52;2.63;;;5.60;99.90;;;;;;5028711;28;20053;-67
2022/04/09 05:46:01;;;;;;;14.48;2.53;;;5.70;99.90;;;;;;5029328;28;20054;-68
2022/04/09 05:48:26;;;;;;;9.80;2.83;;;5.80;99.90;;;;;;5008931;28;20049;-67
2022/04/09 05:50:52;;;;;;;18.65;3.58;;;5.80;99.90;;;;;;5016422;28;20041;-67
2022/04/09 05:53:17;;;;;;;10.68;2.53;;;5.90;99.90;;;;;;5026822;28;20112;-66
2022/04/09 05:55:43;;;;;;;14.18;3.10;;;6.00;99.90;;;;;;5028372;28;20104;-67
2022/04/09 05:58:08;;;;;;;12.00;2.53;;;6.10;99.90;;;;;;5015919;28;20045;-66
2022/04/09 06:00:34;;;;;;;13.02;2.72;;;6.10;99.90;;;;;;5018383;28;20060;-67
2022/04/09 06:03:01;;;;;;;12.45;1.65;;;6.00;99.90;;;;;;5009471;28;20069;-66
2022/04/09 06:05:27;;;;;;;9.80;2.55;;;6.00;99.90;;;;;;5017435;28;20443;-67
2022/04/09 06:07:53;;;;;;;12.13;1.73;;;6.00;99.90;;;;;;5015637;28;20041;-67
2022/04/09 06:10:19;;;;;;;9.57;2.72;;;6.00;99.90;;;;;;5017736;28;20489;-67
2022/04/09 06:12:45;;;;;;;9.43;2.00;;;6.00;99.90;;;;;;5021573;28;20421;-67
2022/04/09 06:15:11;;;;;;;13.88;2.38;;;6.10;99.90;;;;;;5018281;28;20046;-67
2022/04/09 06:17:37;;;;;;;13.57;2.15;;;6.20;99.90;;;;;;5031097;28;20048;-67
2022/04/09 06:20:04;;;;;;;11.13;2.67;;;6.20;99.90;;;;;;5031733;28;20389;-67
2022/04/09 06:22:30;;;;;;;12.63;2.20;;;6.10;99.90;;;;;;5028891;28;20113;-67
2022/04/09 06:24:55;;;;;;;19.55;2.40;;;6.20;99.90;;;;;;5012805;28;20124;-67
2022/04/09 06:27:21;;;;;;;14.98;2.97;;;6.30;99.90;;;;;;5013022;28;20042;-67
2022/04/09 06:29:46;;;;;;;12.48;1.83;;;6.30;99.90;;;;;;5010531;28;20049;-67
2022/04/09 06:32:12;;;;;;;5.47;1.88;;;6.30;99.90;;;;;;5032626;28;20048;-66
2022/04/09 06:34:37;;;;;;;7.45;1.60;;;6.30;99.90;;;;;;5030882;28;20083;-67
2022/04/09 06:37:04;;;;;;;11.30;1.83;;;6.20;99.90;;;;;;5030232;28;20176;-66
2022/04/09 06:39:29;;;;;;;11.68;2.08;;;6.30;99.90;;;;;;5018204;28;20061;-66
2022/04/09 06:41:55;;;;;;;10.68;1.67;;;6.40;99.90;;;;;;5030825;28;20045;-67
2022/04/09 06:44:20;;;;;;;6.43;1.60;;;6.40;99.90;;;;;;5031481;28;20389;-67
2022/04/09 06:46:46;;;;;;;9.63;1.48;;;6.40;99.90;;;;;;5019859;28;20045;-67
2022/04/09 06:49:13;;;;;;;17.27;2.35;;;6.40;99.90;;;;;;5026977;28;20087;-67
2022/04/09 06:51:39;;;;;;;10.20;1.50;;;6.30;99.90;;;;;;5019305;28;20542;-67
2022/04/09 06:54:05;;;;;;;13.32;2.15;;;6.30;99.90;;;;;;5012110;28;20100;-67
2022/04/09 06:56:31;;;;;;;12.75;2.28;;;6.30;99.90;;;;;;5016958;28;20117;-67
2022/04/09 06:58:57;;;;;;;11.18;2.10;;;6.40;99.90;;;;;;5026682;28;20180;-66
2022/04/09 07:01:22;;;;;;;15.25;2.17;;;6.50;99.90;;;;;;5031928;28;20058;-66
2022/04/09 07:03:48;;;;;;;11.02;2.75;;;6.50;99.90;;;;;;5025764;28;20456;-66
2022/04/09 07:06:16;;;;;;;13.52;2.50;;;6.60;99.90;;;;;;5028516;28;20493;-66
2022/04/09 07:08:42;;;;;;;15.13;3.95;;;6.70;99.90;;;;;;5017788;28;20557;-67
2022/04/09 07:11:07;;;;;;;14.07;2.45;;;6.80;99.90;;;;;;5015715;28;20049;-67
2022/04/09 07:13:33;;;;;;;8.05;2.35;;;6.80;99.90;;;;;;5009358;28;20054;-67
2022/04/09 07:15:58;;;;;;;10.80;2.38;;;7.00;99.90;;;;;;5012654;28;20049;-67
2022/04/09 07:18:24;;;;;;;20.65;2.90;;;7.10;99.90;;;;;;5011057;28;20049;-67
2022/04/09 07:20:49;;;;;;;14.25;2.47;;;7.10;99.90;;;;;;5010256;28;20382;-66
2022/04/09 07:23:15;;;;;;;12.20;2.67;;;7.20;99.90;;;;;;5011460;28;20046;-67
2022/04/09 07:25:42;;;;;;;10.52;1.83;;;7.30;99.90;;;;;;5011986;28;20046;-66
2022/04/09 07:28:09;;;;;;;14.30;1.95;;;7.30;99.90;;;;;;5010389;28;20046;-66
2022/04/09 07:30:34;;;;;;;10.65;3.30;;;7.40;99.90;;;;;;5010871;28;20440;-67
2022/04/09 07:33:00;;;;;;;18.02;2.55;;;7.40;99.90;;;;;;5011782;28;20049;-67
2022/04/09 07:35:26;;;;;;;5.63;1.58;;;7.40;99.90;;;;;;5011865;28;20050;-67
2022/04/09 07:37:54;;;;;;;13.27;2.03;;;7.40;99.90;;;;;;5011571;28;20038;-67
2022/04/09 07:40:22;;;;;;;10.05;1.77;;;7.40;99.90;;;;;;5022123;28;20132;-67
2022/04/09 07:42:48;;;;;;;10.45;1.80;;;7.50;99.90;;;;;;5031894;28;20096;-67
2022/04/09 07:45:15;;;;;;;4.95;1.52;;;7.60;99.90;;;;;;5031608;28;20045;-67
2022/04/09 07:47:42;;;;;;;7.72;1.50;;;7.50;99.90;;;;;;5014035;28;20574;-67
2022/04/09 07:50:10;;;;;;;5.93;1.58;;;7.50;99.90;;;;;;5015349;28;20046;-67
2022/04/09 07:52:40;;;;;;;5.35;0.95;;;7.60;99.90;;;;;;5010801;28;20053;-67
2022/04/09 07:55:07;;;;;;;10.18;1.38;;;7.60;99.90;;;;;;5010610;28;20060;-67
2022/04/09 07:57:33;;;;;;;11.63;1.75;;;7.60;99.90;;;;;;5010044;28;20431;-67
2022/04/09 07:59:58;;;;;;;8.88;1.35;;;7.70;99.90;;;;;;5021899;28;20081;-67
2022/04/09 08:02:25;;;;;;;9.20;2.05;;;7.70;99.90;;;;;;5015571;28;20052;-67
2022/04/09 08:04:50;;;;;;;11.93;2.85;;;7.70;99.90;;;;;;5011592;28;20410;-67
2022/04/09 08:07:16;;;;;;;12.35;1.40;;;7.60;99.90;;;;;;5009574;28;20038;-67
2022/04/09 08:09:45;;;;;;;14.00;2.03;;;7.80;99.90;;;;;;5020615;28;20085;-67
2022/04/09 08:12:15;;;;;;;16.58;3.38;;;7.80;99.90;;;;;;5020611;28;20081;-67
2022/04/09 08:14:41;;;;;;;12.23;2.55;;;8.10;99.90;;;;;;5016810;28;20057;-67
2022/04/09 08:17:07;;;;;;;14.55;2.40;;;8.10;99.90;;;;;;5024242;28;20041;-66
2022/04/09 08:19:34;;;;;;;12.20;2.58;;;8.10;99.90;;;;;;5027160;28;20585;-67
2022/04/09 08:22:00;;;;;;;8.70;2.20;;;8.40;99.90;;;;;;5011008;28;20121;-67
2022/04/09 08:24:26;;;;;;;15.23;3.30;;;8.80;99.90;;;;;;5022816;28;20045;-67
2022/04/09 08:26:51;;;;;;;15.43;2.40;;;9.20;99.90;;;;;;5030813;28;20039;-66
2022/04/09 08:29:19;;;;;;;14.52;2.53;;;9.60;99.90;;;;;;5017406;28;20053;-67
2022/04/09 08:31:47;;;;;;;12.10;2.28;;;9.90;99.90;;;;;;5023317;28;20091;-66
2022/04/09 08:34:17;;;;;;;17.52;2.17;;;10.40;99.90;;;;;;5019060;28;20045;-67
2022/04/09 08:36:44;;;;;;;12.23;1.73;;;10.50;99.90;;;;;;5017643;28;20058;-67
2022/04/09 08:39:09;;;;;;;10.25;1.75;;;11.10;99.90;;;;;;5016232;28;20102;-67
2022/04/09 08:41:36;;;;;;;12.85;2.80;;;11.70;99.90;;;;;;5030309;28;20128;-67
2022/04/09 08:44:02;;;;;;;12.60;2.20;;;11.80;99.90;;;;;;5028595;28;20053;-67
2022/04/09 08:46:29;;;;;;;10.25;1.88;;;11.60;99.90;;;;;;5019252;28;20421;-67
2022/04/09 08:48:58;;;;;;;14.88;3.20;;;11.70;99.90;;;;;;5021289;28;20057;-67
2022/04/09 08:51:24;;;;;;;14.98;2.88;;;12.20;99.90;;;;;;5029412;28;20045;-67
2022/04/09 08:53:50;;;;;;;12.57;2.38;;;12.10;99.90;;;;;;5030154;28;20124;-67
2022/04/09 08:56:18;;;;;;;7.53;1.95;;;12.10;99.90;;;;;;5014571;28;20046;-67
2022/04/09 08:58:44;;;;;;;5.35;1.50;;;12.30;99.90;;;;;;5023397;28;20099;-67
2022/04/09 09:01:09;;;;;;;7.35;1.80;;;12.60;99.90;;;;;;5030249;28;20052;-67
2022/04/09 09:03:35;;;;;;;3.58;1.10;;;12.60;99.90;;;;;;5029989;28;20038;-67
2022/04/09 09:06:01;;;;;;;5.82;1.45;;;12.80;99.90;;;;;;5012691;28;20126;-67
2022/04/09 09:08:41;;;;;;;6.35;1.85;;;12.90;99.90;;;;;;5010752;28;20037;-67
2022/04/09 09:11:07;;;;;;;9.27;2.45;;;13.20;99.90;;;;;;5021347;28;20038;-67
2022/04/09 09:13:50;;;;;;;14.23;2.63;;;12.80;99.90;;;;;;5024123;28;21022;-67
2022/04/09 09:16:30;;;;;;;7.23;1.97;;;12.30;99.90;;;;;;5029644;28;20068;-67
2022/04/09 09:18:58;;;;;;;8.52;2.03;;;12.10;99.90;;;;;;5011853;28;20089;-67
2022/04/09 09:21:26;;;;;;;8.52;2.33;;;11.60;99.90;;;;;;5009861;28;20049;-67
2022/04/09 09:24:13;;;;;;;9.55;2.25;;;11.50;99.90;;;;;;5010018;28;20041;-67
2022/04/09 09:26:39;;;;;;;10.20;2.22;;;11.10;99.90;;;;;;5010548;28;20085;-67
2022/04/09 09:29:06;;;;;;;8.95;1.65;;;10.90;99.90;;;;;;5021825;28;20052;-67
2022/04/09 09:31:45;;;;;;;7.25;1.27;;;10.30;99.90;;;;;;5024246;28;20056;-67
2022/04/09 09:34:11;;;;;;;9.10;1.10;;;9.90;99.90;;;;;;5020425;28;20052;-67
2022/04/09 09:36:40;;;;;;;5.20;1.17;;;9.50;99.90;;;;;;5009583;28;20045;-67
2022/04/09 09:39:07;;;;;;;10.20;2.22;;;9.30;99.90;;;;;;5020303;28;20095;-67
2022/04/09 09:41:32;;;;;;;14.23;2.15;;;9.10;99.90;;;;;;5027871;28;20052;-67
2022/04/09 09:44:03;;;;;;;10.95;1.95;;;8.80;99.90;;;;;;5026807;28;20026;-67
2022/04/09 09:46:28;;;;;;;8.02;1.85;;;8.50;99.90;;;;;;5012454;28;20048;-67
2022/04/09 09:48:54;;;;;;;9.27;2.22;;;8.40;99.90;;;;;;5008746;28;20132;-67
2022/04/09 09:51:24;;;;;;;12.40;3.78;;;8.20;99.90;;;;;;5013009;28;20132;-67
2022/04/09 09:53:49;;;;;;;7.20;2.33;;;8.30;99.90;;;;;;5012212;28;20065;-67
2022/04/09 09:56:33;;;;;;;6.32;1.63;;;8.90;99.90;;;;;;5023582;28;20265;-67
2022/04/09 09:59:01;;;;;;;8.35;2.05;;;10.10;99.90;;;;;;5024582;28;20501;-67
2022/04/09 10:01:27;;;;;;;11.32;1.30;;;11.00;99.90;;;;;;5018751;28;20045;-67
2022/04/09 10:03:54;;;;;;;10.65;2.28;;;11.40;99.90;;;;;;5032440;28;20054;-67
2022/04/09 10:06:21;;;;;;;6.40;1.58;;;11.80;99.90;;;;;;5023261;28;20077;-67
2022/04/09 10:08:47;;;;;;;8.32;2.30;;;12.30;99.90;;;;;;5034323;28;20129;-67
2022/04/09 10:11:15;;;;;;;5.00;1.70;;;12.50;99.90;;;;;;5022188;28;20105;-67
2022/04/09 10:13:43;;;;;;;11.88;2.22;;;12.60;99.90;;;;;;5034939;28;20061;-67
2022/04/09 10:16:11;;;;;;;15.00;1.90;;;12.20;99.90;;;;;;5024724;28;20038;-67
2022/04/09 10:18:36;;;;;;;5.63;1.30;;;11.40;99.90;;;;;;5029983;28;20382;-67
2022/04/09 10:21:03;;;;;;;10.38;1.60;;;11.10;99.90;;;;;;5028853;28;20049;-67
2022/04/09 10:23:32;;;;;;;10.07;2.63;;;11.20;99.90;;;;;;5025674;28;20055;-67
2022/04/09 10:26:02;;;;;;;4.88;1.52;;;10.90;99.90;;;;;;5026497;28;20045;-67
2022/04/09 10:28:38;;;;;;;6.05;1.40;;;10.70;99.90;;;;;;5024338;28;20528;-67
2022/04/09 10:31:22;;;;;;;5.60;1.63;;;10.90;99.90;;;;;;5021138;28;20064;-67
2022/04/09 10:33:57;;;;;;;3.22;0.98;;;11.30;99.90;;;;;;5026550;28;20049;-67
2022/04/09 10:36:44;;;;;;;4.97;1.52;;;11.50;99.90;;;;;;5022678;28;20132;-67
2022/04/09 10:39:39;;;;;;;4.30;1.40;;;11.50;99.90;;;;;;5024406;28;20052;-67
2022/04/09 10:42:05;;;;;;;9.82;2.90;;;11.50;99.90;;;;;;5016090;28;20041;-67
2022/04/09 10:44:43;;;;;;;4.75;1.67;;;11.90;99.90;;;;;;5028086;28;20227;-67
2022/04/09 10:47:11;;;;;;;4.93;1.35;;;12.20;99.90;;;;;;5032609;28;20545;-67
2022/04/09 10:49:37;;;;;;;6.63;1.77;;;12.10;99.90;;;;;;5023780;28;20042;-67
2022/04/09 10:52:14;;;;;;;8.70;1.85;;;12.20;99.90;;;;;;5024039;28;20590;-67
2022/04/09 10:54:43;;;;;;;14.27;2.72;;;11.80;99.90;;;;;;5032409;28;20050;-67
2022/04/09 10:57:22;;;;;;;14.30;2.88;;;11.30;99.90;;;;;;5030384;28;20049;-67
2022/04/09 10:59:58;;;;;;;13.77;3.13;;;10.90;99.90;;;;;;5021570;28;20049;-67
2022/04/09 11:02:25;;;;;;;7.90;1.70;;;11.20;99.90;;;;;;5020869;28;20050;-67
2022/04/09 11:04:51;;;;;;;11.32;2.30;;;11.50;99.90;;;;;;5016136;28;20128;-67
2022/04/09 11:07:22;;;;;;;10.13;1.50;;;11.90;99.90;;;;;;5025600;28;20063;-67
2022/04/09 11:09:56;;;;;;;2.70;1.08;;;12.30;99.90;;;;;;5031635;28;20046;-67
2022/04/09 11:12:25;;;;;;;4.25;0.93;;;12.10;99.90;;;;;;5022547;28;20034;-67
2022/04/09 11:15:02;;;;;;;3.85;0.88;;;11.40;99.90;;;;;;5025475;28;20389;-67
2022/04/09 11:17:48;;;;;;;4.15;0.70;;;11.30;99.90;;;;;;5031080;28;20136;-67
2022/04/09 11:20:17;;;;;;;2.22;0.88;;;11.60;99.90;;;;;;5019310;28;20042;-68
2022/04/09 11:22:52;;;;;;;2.58;0.70;;;11.30;99.90;;;;;;5031829;28;20050;-68
2022/04/09 11:25:29;;;;;;;4.60;1.00;;;10.60;99.90;;;;;;5028286;28;20049;-68
2022/04/09 11:28:17;;;;;;;3.22;0.80;;;10.10;99.90;;;;;;5021560;28;20091;-67
2022/04/09 11:30:58;;;;;;;1.30;0.70;;;9.30;99.90;;;;;;5030753;28;20504;-68
2022/04/09 11:33:23;;;;;;;1.33;0.70;;;9.10;99.90;;;;;;5021166;28;20492;-67
2022/04/09 11:35:49;;;;;;;3.05;0.93;;;8.80;99.90;;;;;;5016296;28;20045;-67
2022/04/09 11:38:16;;;;;;;2.72;0.60;;;8.90;99.90;;;;;;5019396;28;20042;-67
2022/04/09 11:40:47;;;;;;;8.52;1.77;;;9.00;99.90;;;;;;5030836;28;20053;-67
2022/04/09 11:43:15;;;;;;;7.03;1.27;;;9.10;99.90;;;;;;5023638;28;20503;-67
2022/04/09 11:45:41;;;;;;;5.07;1.20;;;8.90;99.90;;;;;;5026038;28;20124;-67
2022/04/09 11:48:06;;;;;;;5.65;1.27;;;8.90;99.90;;;;;;5029643;28;20034;-67
2022/04/09 11:50:34;;;;;;;5.43;0.75;;;9.10;99.90;;;;;;5030853;28;20053;-67
2022/04/09 11:53:14;;;;;;;2.72;0.47;;;9.40;99.90;;;;;;5021609;28;20497;-67
2022/04/09 11:55:41;;;;;;;3.97;0.80;;;9.90;99.90;;;;;;5018083;28;20053;-67
2022/04/09 11:58:07;;;;;;;1.38;0.40;;;10.40;99.90;;;;;;5021684;28;20082;-67
2022/04/09 12:00:41;;;;;;;2.60;0.75;;;10.40;99.90;;;;;;5027467;28;20560;-67
2022/04/09 12:03:07;;;;;;;2.83;0.65;;;10.90;99.90;;;;;;5016488;28;20104;-67
2022/04/09 12:05:46;;;;;;;5.95;1.15;;;11.10;99.90;;;;;;5017514;28;20057;-68
2022/04/09 12:08:21;;;;;;;7.15;1.42;;;11.50;99.90;;;;;;5028940;28;20133;-68
2022/04/09 12:11:01;;;;;;;3.47;1.50;;;11.70;99.90;;;;;;5029906;28;20049;-68
2022/04/09 12:13:33;;;;;;;3.70;1.00;;;12.10;99.90;;;;;;5013193;28;20072;-68
2022/04/09 12:16:14;;;;;;;10.25;2.78;;;12.30;99.90;;;;;;5014143;28;20050;-68
2022/04/09 12:18:41;;;;;;;8.13;2.17;;;12.60;99.90;;;;;;5022478;28;20132;-68
2022/04/09 12:21:26;;;;;;;16.08;2.33;;;12.70;99.90;;;;;;5018639;28;20045;-68
2022/04/09 12:24:00;;;;;;;8.20;2.47;;;12.80;99.90;;;;;;5013603;28;20042;-67
2022/04/09 12:26:26;;;;;;;11.43;1.98;;;12.90;99.90;;;;;;5019604;28;20517;-68
2022/04/09 12:29:12;;;;;;;7.75;1.77;;;12.30;99.90;;;;;;5030070;28;20091;-68
2022/04/09 12:31:43;;;;;;;4.72;1.20;;;10.80;99.90;;;;;;5022550;28;20060;-68
2022/04/09 12:34:09;;;;;;;4.45;1.23;;;10.20;99.90;;;;;;5024117;28;20192;-68
2022/04/09 12:36:38;;;;;;;2.92;0.82;;;9.70;99.90;;;;;;5023598;28;20049;-67
2022/04/09 12:39:26;;;;;;;3.85;1.13;;;9.70;99.90;;;;;;5028770;28;20045;-67
2022/04/09 12:41:52;;;;;;;5.15;1.20;;;10.10;99.90;;;;;;5026255;28;20482;-67
2022/04/09 12:44:28;;;;;;;3.28;0.60;;;10.60;99.90;;;;;;5016548;28;20068;-67
2022/04/09 12:46:54;;;;;;;2.28;1.10;;;10.80;99.90;;;;;;5030631;28;20056;-67
2022/04/09 12:49:28;;;;;;;5.15;1.38;;;11.00;99.90;;;;;;5027175;28;20045;-67
2022/04/09 12:51:54;;;;;;;6.78;1.05;;;10.90;99.90;;;;;;5026834;28;20401;-67
2022/04/09 12:54:19;;;;;;;5.50;1.05;;;10.40;99.90;;;;;;5030222;28;20042;-67
2022/04/09 12:56:45;;;;;;;2.78;0.43;;;10.00;99.90;;;;;;5011004;28;20041;-67